Time;durP1;ratioP1;P1;durP2;ratioP2;P2;SDS_P1;SDS_P2;PMS_P1;PMS_P2;Temp;Humidity;BMP_temperature;BMP_pressure;BME280_temperature;BME280_humidity;BME280_pressure;Samples;Min_cycle;Max_cycle;Signal;HPM_P1;HPM_P2
2022/10/13 00:00:55;;;;;;;9.88;6.82;;;21.10;97.20;;;;;;5024453;28;20459;-47
2022/10/13 00:03:21;;;;;;;10.10;7.55;;;21.10;97.20;;;;;;5025582;28;20219;-51
2022/10/13 00:05:50;;;;;;;10.20;6.90;;;21.00;97.50;;;;;;5019019;28;20196;-44
2022/10/13 00:08:19;;;;;;;9.30;7.28;;;21.00;97.30;;;;;;5020055;28;20204;-51
2022/10/13 00:10:47;;;;;;;9.90;7.20;;;21.00;97.30;;;;;;5020187;28;20224;-50
2022/10/13 00:13:14;;;;;;;10.43;7.10;;;21.00;97.40;;;;;;5028492;28;20454;-51
2022/10/13 00:15:44;;;;;;;7.10;6.33;;;21.00;97.50;;;;;;5024812;28;20956;-48
2022/10/13 00:18:11;;;;;;;9.87;7.13;;;20.90;97.90;;;;;;5022992;28;20458;-52
2022/10/13 00:20:41;;;;;;;10.33;6.90;;;20.80;98.30;;;;;;5023566;28;20450;-50
2022/10/13 00:23:08;;;;;;;7.50;5.72;;;20.80;98.40;;;;;;5016788;28;20547;-47
2022/10/13 00:25:35;;;;;;;8.23;6.80;;;20.80;98.30;;;;;;5027701;28;20246;-44
2022/10/13 00:28:02;;;;;;;9.77;5.97;;;20.90;98.20;;;;;;5024558;28;20458;-50
2022/10/13 00:30:28;;;;;;;8.68;6.47;;;20.90;98.10;;;;;;5027364;28;20666;-48
2022/10/13 00:32:56;;;;;;;7.90;6.33;;;20.90;98.10;;;;;;5024261;28;20250;-48
2022/10/13 00:35:23;;;;;;;9.18;6.93;;;20.90;98.00;;;;;;5029619;28;20443;-50
2022/10/13 00:37:50;;;;;;;6.93;6.18;;;20.90;98.10;;;;;;5024631;28;20211;-50
2022/10/13 00:40:17;;;;;;;9.30;7.40;;;20.80;98.10;;;;;;5023473;28;20223;-54
2022/10/13 00:42:43;;;;;;;8.82;6.47;;;20.80;98.10;;;;;;5028610;28;20681;-49
2022/10/13 00:45:23;;;;;;;7.45;5.80;;;20.80;98.20;;;;;;5027990;28;20188;-48
2022/10/13 00:47:54;;;;;;;8.82;6.80;;;20.80;98.10;;;;;;5016204;28;20207;-50
2022/10/13 00:50:26;;;;;;;9.02;6.88;;;20.80;98.20;;;;;;5018686;28;20203;-46
2022/10/13 00:52:56;;;;;;;9.10;7.03;;;20.80;98.20;;;;;;5020653;28;20199;-52
2022/10/13 00:55:25;;;;;;;8.07;5.97;;;20.80;98.20;;;;;;5015968;28;20200;-50
2022/10/13 00:57:54;;;;;;;8.43;6.40;;;20.80;98.20;;;;;;5020558;28;20203;-46
2022/10/13 01:00:23;;;;;;;7.60;6.38;;;20.80;98.20;;;;;;5029018;28;20215;-49
2022/10/13 01:02:50;;;;;;;9.18;6.20;;;20.70;98.20;;;;;;5024492;28;20342;-50
2022/10/13 01:05:18;;;;;;;7.25;6.15;;;20.80;98.30;;;;;;5030375;28;20195;-50
2022/10/13 01:07:48;;;;;;;10.93;6.78;;;20.70;98.20;;;;;;5022383;28;20207;-50
2022/10/13 01:10:23;;;;;;;9.90;6.05;;;20.70;98.30;;;;;;5026231;28;20570;-50
2022/10/13 01:12:57;;;;;;;9.95;7.30;;;20.70;98.30;;;;;;5027770;28;20195;-49
2022/10/13 01:15:30;;;;;;;6.93;6.30;;;20.70;98.40;;;;;;5025099;28;20203;-47
2022/10/13 01:18:07;;;;;;;7.90;7.00;;;20.70;98.40;;;;;;5024423;28;20220;-50
2022/10/13 01:20:52;;;;;;;7.65;6.18;;;20.70;98.40;;;;;;5023287;28;20223;-50
2022/10/13 01:24:04;;;;;;;10.18;6.70;;;20.70;98.50;;;;;;5021027;28;20196;-44
2022/10/13 01:26:54;;;;;;;11.10;7.15;;;20.60;98.40;;;;;;5004260;28;20602;-48
2022/10/13 01:29:54;;;;;;;10.07;6.75;;;20.60;98.50;;;;;;5026191;28;20270;-51
2022/10/13 01:32:29;;;;;;;7.97;6.82;;;20.60;98.50;;;;;;5027364;28;20196;-49
2022/10/13 01:35:05;;;;;;;9.00;7.00;;;20.60;98.60;;;;;;5029247;28;20326;-48
2022/10/13 01:37:38;;;;;;;7.43;5.80;;;20.60;98.70;;;;;;5021901;28;20195;-50
2022/10/13 01:40:13;;;;;;;8.63;6.30;;;20.50;98.60;;;;;;5028467;28;20222;-51
2022/10/13 01:42:46;;;;;;;7.15;6.05;;;20.50;98.70;;;;;;5021517;28;20215;-50
2022/10/13 01:45:17;;;;;;;9.15;6.50;;;20.50;99.10;;;;;;5027423;28;20202;-49
2022/10/13 01:47:47;;;;;;;7.97;6.45;;;20.40;99.40;;;;;;5022510;28;20650;-50
2022/10/13 01:50:15;;;;;;;7.03;6.30;;;20.50;99.40;;;;;;5019516;28;20667;-46
2022/10/13 01:52:43;;;;;;;7.55;6.25;;;20.50;99.20;;;;;;5019007;28;20218;-47
2022/10/13 01:55:12;;;;;;;9.63;6.78;;;20.50;99.10;;;;;;5027633;28;20562;-52
2022/10/13 01:57:41;;;;;;;6.22;5.63;;;20.50;99.10;;;;;;5021058;28;20203;-50
2022/10/13 02:00:10;;;;;;;7.00;5.45;;;20.50;99.10;;;;;;5029214;28;20273;-47
2022/10/13 02:02:43;;;;;;;8.68;5.80;;;20.50;99.10;;;;;;5024234;28;20203;-47
2022/10/13 02:05:21;;;;;;;9.10;5.80;;;20.40;99.10;;;;;;5030338;28;20199;-49
2022/10/13 02:07:54;;;;;;;7.10;6.00;;;20.40;99.50;;;;;;5014329;28;20200;-47
2022/10/13 02:10:26;;;;;;;8.00;6.28;;;20.40;99.10;;;;;;5023046;28;20204;-49
2022/10/13 02:12:57;;;;;;;7.68;5.55;;;20.40;99.10;;;;;;5030965;28;20204;-49
2022/10/13 02:15:29;;;;;;;6.57;5.80;;;20.40;99.20;;;;;;5016343;28;20268;-49
2022/10/13 02:17:56;;;;;;;7.63;6.18;;;20.40;99.10;;;;;;5027450;28;20390;-47
2022/10/13 02:20:24;;;;;;;6.75;6.05;;;20.40;99.10;;;;;;5026491;28;20225;-49
2022/10/13 02:22:57;;;;;;;8.65;6.55;;;20.40;99.10;;;;;;5024514;28;20673;-47
2022/10/13 02:25:24;;;;;;;8.55;5.35;;;20.40;99.20;;;;;;5030406;28;20245;-49
2022/10/13 02:27:53;;;;;;;8.32;6.35;;;20.40;99.20;;;;;;5024420;28;20200;-50
2022/10/13 02:30:22;;;;;;;7.35;6.22;;;20.40;99.20;;;;;;5023018;28;20725;-50
2022/10/13 02:32:48;;;;;;;6.15;5.18;;;20.40;99.20;;;;;;5025903;28;20629;-43
2022/10/13 02:35:15;;;;;;;7.00;6.15;;;20.40;99.30;;;;;;5024312;28;20203;-50
2022/10/13 02:37:43;;;;;;;6.88;6.18;;;20.40;99.30;;;;;;5021687;28;20242;-49
2022/10/13 02:40:11;;;;;;;6.30;5.70;;;20.30;99.20;;;;;;5019480;28;20216;-48
2022/10/13 02:42:38;;;;;;;8.98;6.05;;;20.30;99.30;;;;;;5025077;28;20211;-49
2022/10/13 02:45:06;;;;;;;5.88;4.85;;;20.30;99.30;;;;;;5033330;28;20610;-43
2022/10/13 02:47:32;;;;;;;7.57;6.40;;;20.30;99.30;;;;;;5020285;28;20202;-53
2022/10/13 02:49:59;;;;;;;7.88;6.00;;;20.30;99.40;;;;;;5029445;28;20651;-48
2022/10/13 02:52:26;;;;;;;7.50;5.72;;;20.30;99.40;;;;;;5024150;28;20199;-49
2022/10/13 02:54:54;;;;;;;6.72;5.68;;;20.20;99.40;;;;;;5024360;28;20204;-50
2022/10/13 02:57:20;;;;;;;8.00;6.65;;;20.20;99.50;;;;;;5025565;28;20205;-50
2022/10/13 02:59:47;;;;;;;6.18;5.35;;;20.20;99.50;;;;;;5026382;28;20222;-47
2022/10/13 03:02:14;;;;;;;10.07;6.28;;;20.20;99.60;;;;;;5020522;28;20219;-50
2022/10/13 03:04:41;;;;;;;6.82;5.47;;;20.20;99.60;;;;;;5025111;28;20604;-52
2022/10/13 03:07:07;;;;;;;7.18;5.65;;;20.20;99.60;;;;;;5030145;28;20203;-48
2022/10/13 03:09:34;;;;;;;5.93;5.32;;;20.20;99.70;;;;;;5024311;28;20212;-49
2022/10/13 03:12:03;;;;;;;6.00;5.40;;;20.20;99.90;;;;;;5015026;28;20200;-47
2022/10/13 03:14:29;;;;;;;6.57;5.85;;;20.20;99.90;;;;;;5031060;28;20533;-48
2022/10/13 03:16:56;;;;;;;8.25;5.60;;;20.20;99.90;;;;;;5019000;28;20211;-50
2022/10/13 03:19:23;;;;;;;7.53;5.53;;;20.20;99.90;;;;;;5030281;28;20216;-47
2022/10/13 03:21:50;;;;;;;6.53;5.82;;;20.20;99.90;;;;;;5026582;28;20193;-49
2022/10/13 03:24:17;;;;;;;6.20;5.00;;;20.20;99.90;;;;;;5026356;28;20201;-50
2022/10/13 03:26:43;;;;;;;6.22;5.57;;;20.20;99.90;;;;;;5020998;28;20202;-45
2022/10/13 03:29:14;;;;;;;6.38;5.10;;;20.20;99.90;;;;;;5032640;28;20204;-46
2022/10/13 03:31:41;;;;;;;7.28;6.18;;;20.20;99.90;;;;;;5017062;28;20287;-50
2022/10/13 03:34:08;;;;;;;6.40;5.18;;;20.20;99.90;;;;;;5028759;28;20203;-46
2022/10/13 03:36:35;;;;;;;7.70;5.20;;;20.20;99.90;;;;;;5018297;28;20199;-48
2022/10/13 03:39:02;;;;;;;8.00;6.13;;;20.10;99.90;;;;;;5028324;28;20200;-46
2022/10/13 03:41:28;;;;;;;8.07;5.20;;;20.10;99.90;;;;;;5022483;28;20698;-50
2022/10/13 03:43:55;;;;;;;6.78;5.90;;;20.10;99.90;;;;;;5020518;28;20198;-51
2022/10/13 03:46:27;;;;;;;4.80;4.40;;;20.30;99.90;;;;;;5026469;28;20195;-47
2022/10/13 03:48:55;;;;;;;5.90;4.85;;;20.60;99.60;;;;;;5028969;28;20192;-46
2022/10/13 03:51:23;;;;;;;5.77;5.27;;;21.00;98.60;;;;;;5031544;28;20203;-51
2022/10/13 03:53:50;;;;;;;6.82;5.05;;;21.30;97.60;;;;;;5024097;28;20455;-49
2022/10/13 03:56:19;;;;;;;5.87;4.03;;;21.40;97.20;;;;;;5017783;28;20644;-51
2022/10/13 03:58:46;;;;;;;5.53;5.03;;;21.50;96.80;;;;;;5020181;28;20828;-48
2022/10/13 04:01:15;;;;;;;6.67;5.40;;;21.60;96.40;;;;;;5013020;28;20483;-48
2022/10/13 04:03:43;;;;;;;6.03;5.47;;;21.70;96.10;;;;;;5025738;28;20549;-46
2022/10/13 04:06:10;;;;;;;5.03;4.53;;;21.70;96.00;;;;;;5027250;28;20465;-47
2022/10/13 04:08:37;;;;;;;8.10;6.17;;;21.70;95.90;;;;;;5020868;28;20458;-51
2022/10/13 04:11:06;;;;;;;5.67;4.77;;;21.80;95.80;;;;;;5027870;28;20459;-52
2022/10/13 04:13:33;;;;;;;6.10;4.73;;;21.70;95.70;;;;;;5029533;28;20442;-51
2022/10/13 04:16:03;;;;;;;5.47;4.37;;;21.80;95.60;;;;;;5020543;28;20539;-51
2022/10/13 04:18:30;;;;;;;5.10;4.57;;;21.80;95.50;;;;;;5024951;28;20451;-54
2022/10/13 04:20:58;;;;;;;6.10;5.50;;;21.80;95.40;;;;;;5025758;28;20482;-46
2022/10/13 04:23:25;;;;;;;5.63;4.63;;;21.80;95.40;;;;;;5022534;28;20528;-48
2022/10/13 04:25:51;;;;;;;5.97;4.43;;;21.70;95.40;;;;;;5028528;28;20462;-51
2022/10/13 04:28:18;;;;;;;4.83;4.20;;;21.70;95.40;;;;;;5019986;28;20970;-45
2022/10/13 04:30:45;;;;;;;7.63;5.10;;;21.60;95.30;;;;;;5022470;28;20462;-49
2022/10/13 04:33:12;;;;;;;4.80;4.30;;;21.60;95.80;;;;;;5023938;28;20459;-51
2022/10/13 04:35:40;;;;;;;4.60;4.20;;;21.60;95.50;;;;;;5017184;28;20861;-50
2022/10/13 04:38:09;;;;;;;4.93;4.43;;;21.50;95.50;;;;;;5024106;28;20466;-51
2022/10/13 04:40:36;;;;;;;4.70;3.90;;;21.50;95.60;;;;;;5020678;28;20475;-52
2022/10/13 04:43:03;;;;;;;5.53;4.90;;;21.40;95.60;;;;;;5024856;28;20451;-51
2022/10/13 04:45:29;;;;;;;5.37;4.97;;;21.40;95.60;;;;;;5019107;28;20461;-51
2022/10/13 04:47:57;;;;;;;4.47;3.77;;;21.40;95.80;;;;;;5022850;28;20466;-50
2022/10/13 04:50:23;;;;;;;4.87;4.30;;;21.30;96.20;;;;;;5027093;28;20497;-53
2022/10/13 04:52:50;;;;;;;5.97;4.53;;;21.30;95.90;;;;;;5021207;28;20454;-50
2022/10/13 04:55:18;;;;;;;5.70;4.87;;;21.20;95.90;;;;;;5019784;28;20466;-49
2022/10/13 04:57:45;;;;;;;5.77;5.27;;;21.20;96.00;;;;;;5021039;28;20466;-47
2022/10/13 05:00:12;;;;;;;4.70;3.83;;;21.10;96.10;;;;;;5028385;28;20483;-47
2022/10/13 05:02:39;;;;;;;5.50;4.33;;;21.10;96.20;;;;;;5018353;28;20514;-50
2022/10/13 05:05:07;;;;;;;4.90;4.40;;;21.10;96.20;;;;;;5018541;28;20465;-48
2022/10/13 05:07:33;;;;;;;4.80;4.30;;;21.10;96.20;;;;;;5021987;28;20462;-51
2022/10/13 05:10:00;;;;;;;4.63;4.10;;;21.10;96.20;;;;;;5030136;28;20477;-53
2022/10/13 05:12:28;;;;;;;5.50;4.97;;;21.10;96.20;;;;;;5024044;28;20465;-46
2022/10/13 05:14:56;;;;;;;5.30;4.77;;;21.10;96.30;;;;;;5026469;28;20485;-46
2022/10/13 05:17:22;;;;;;;4.73;4.10;;;21.10;96.20;;;;;;5020838;28;20896;-49
2022/10/13 05:19:49;;;;;;;4.50;4.10;;;21.20;96.20;;;;;;5030769;28;20833;-48
2022/10/13 05:22:16;;;;;;;4.00;3.60;;;21.20;96.10;;;;;;5018136;28;20459;-48
2022/10/13 05:24:43;;;;;;;3.93;3.60;;;21.30;96.00;;;;;;5022811;28;20865;-53
2022/10/13 05:27:12;;;;;;;4.37;3.80;;;21.40;95.80;;;;;;5016970;28;20467;-49
2022/10/13 05:29:40;;;;;;;4.83;3.90;;;21.40;95.70;;;;;;5023152;28;20447;-48
2022/10/13 05:32:08;;;;;;;4.37;3.97;;;21.40;95.50;;;;;;5017374;28;20463;-51
2022/10/13 05:34:34;;;;;;;5.67;5.07;;;21.50;95.40;;;;;;5024841;28;20475;-51
2022/10/13 05:37:01;;;;;;;4.00;3.37;;;21.50;95.30;;;;;;5017207;28;20470;-44
2022/10/13 05:39:28;;;;;;;4.60;4.20;;;21.60;95.20;;;;;;5027897;28;20488;-52
2022/10/13 05:41:54;;;;;;;4.80;4.40;;;21.60;95.00;;;;;;5030921;28;21003;-49
2022/10/13 05:44:23;;;;;;;4.10;3.70;;;21.70;94.90;;;;;;5034604;28;20465;-48
2022/10/13 05:46:51;;;;;;;4.30;3.90;;;21.70;94.80;;;;;;5022874;28;20451;-51
2022/10/13 05:49:17;;;;;;;4.50;4.10;;;21.80;94.60;;;;;;5030920;28;20989;-49
2022/10/13 05:51:47;;;;;;;4.93;4.43;;;21.80;94.50;;;;;;5014914;28;20470;-45
2022/10/13 05:54:18;;;;;;;4.80;4.13;;;21.80;94.50;;;;;;5021619;28;20971;-45
2022/10/13 05:56:51;;;;;;;3.47;3.17;;;21.80;94.30;;;;;;5025829;28;20454;-49
2022/10/13 05:59:21;;;;;;;3.80;3.50;;;21.80;94.30;;;;;;5031124;28;20455;-47
2022/10/13 06:01:48;;;;;;;4.27;3.37;;;21.80;94.30;;;;;;5023744;28;20489;-46
2022/10/13 06:04:22;;;;;;;4.50;3.67;;;21.80;94.30;;;;;;5030443;28;20462;-48
2022/10/13 06:06:49;;;;;;;5.03;4.20;;;21.80;94.30;;;;;;5030451;28;20959;-46
2022/10/13 06:09:16;;;;;;;4.50;4.10;;;21.80;94.30;;;;;;5016731;28;20459;-43
2022/10/13 06:11:43;;;;;;;4.77;4.37;;;21.80;94.30;;;;;;5023374;28;20524;-48
2022/10/13 06:14:09;;;;;;;4.40;4.00;;;21.70;94.20;;;;;;5030573;28;20466;-48
2022/10/13 06:16:36;;;;;;;3.77;3.47;;;21.80;94.30;;;;;;5020955;28;20865;-44
2022/10/13 06:19:03;;;;;;;4.03;3.47;;;21.70;94.30;;;;;;5033887;28;20500;-44
2022/10/13 06:21:33;;;;;;;3.93;3.63;;;21.70;94.30;;;;;;5033272;28;20881;-45
2022/10/13 06:24:00;;;;;;;4.23;3.10;;;21.70;94.30;;;;;;5021634;28;20532;-46
2022/10/13 06:26:27;;;;;;;6.00;4.37;;;21.60;94.30;;;;;;5025321;28;20473;-46
2022/10/13 06:28:53;;;;;;;4.20;3.10;;;21.60;94.30;;;;;;5030160;28;20466;-48
2022/10/13 06:31:20;;;;;;;3.70;3.40;;;21.60;94.40;;;;;;5024430;28;20463;-45
2022/10/13 06:33:47;;;;;;;4.60;3.67;;;21.60;94.40;;;;;;5033095;28;20469;-45
2022/10/13 06:36:13;;;;;;;5.10;3.47;;;21.60;94.50;;;;;;5023399;28;20459;-49
2022/10/13 06:38:41;;;;;;;3.77;3.37;;;21.60;94.50;;;;;;5025223;28;20861;-44
2022/10/13 06:41:08;;;;;;;4.80;3.70;;;21.60;94.40;;;;;;5028040;28;20486;-45
2022/10/13 06:43:35;;;;;;;3.70;3.40;;;21.50;94.40;;;;;;5021025;28;20461;-46
2022/10/13 06:46:02;;;;;;;4.33;3.20;;;21.50;94.80;;;;;;5028087;28;20459;-51
2022/10/13 06:48:29;;;;;;;3.57;3.20;;;21.50;94.40;;;;;;5029337;28;20462;-44
2022/10/13 06:50:56;;;;;;;4.70;4.30;;;21.50;94.40;;;;;;5026761;28;20954;-50
2022/10/13 06:53:22;;;;;;;3.83;3.53;;;21.50;94.40;;;;;;5030070;28;20889;-48
2022/10/13 06:55:50;;;;;;;3.40;3.07;;;21.50;94.50;;;;;;5028800;28;20449;-46
2022/10/13 06:58:17;;;;;;;4.23;3.80;;;21.50;94.50;;;;;;5029060;28;20446;-43
2022/10/13 07:00:44;;;;;;;4.07;3.77;;;21.60;94.40;;;;;;5025875;28;20483;-49
2022/10/13 07:03:11;;;;;;;4.00;3.60;;;21.60;94.40;;;;;;5020687;28;20980;-48
2022/10/13 07:05:37;;;;;;;4.80;3.80;;;21.50;94.40;;;;;;5025242;28;20534;-46
2022/10/13 07:08:04;;;;;;;3.97;3.67;;;21.60;94.40;;;;;;5028932;28;20946;-46
2022/10/13 07:10:31;;;;;;;3.67;3.37;;;21.60;94.40;;;;;;5021131;28;20989;-47
2022/10/13 07:12:59;;;;;;;4.20;3.73;;;21.60;94.30;;;;;;5027847;28;20481;-47
2022/10/13 07:15:26;;;;;;;3.30;2.63;;;21.60;94.20;;;;;;5022421;28;20822;-49
2022/10/13 07:17:53;;;;;;;5.13;3.67;;;21.60;94.20;;;;;;5026866;28;20493;-48
2022/10/13 07:20:20;;;;;;;4.30;3.10;;;21.70;94.20;;;;;;5031509;28;20442;-47
2022/10/13 07:22:47;;;;;;;3.97;3.57;;;21.70;94.10;;;;;;5023662;28;20486;-47
2022/10/13 07:25:15;;;;;;;4.23;3.20;;;21.70;94.00;;;;;;5026378;28;20458;-48
2022/10/13 07:27:43;;;;;;;5.83;3.27;;;21.70;94.00;;;;;;5026358;28;20462;-49
2022/10/13 07:30:11;;;;;;;4.03;3.63;;;21.70;94.10;;;;;;5026712;28;20462;-46
2022/10/13 07:32:40;;;;;;;3.70;3.40;;;21.80;93.90;;;;;;5023770;28;20968;-50
2022/10/13 07:35:07;;;;;;;3.67;3.33;;;21.80;93.90;;;;;;5031448;28;20460;-47
2022/10/13 07:37:34;;;;;;;3.50;2.90;;;21.80;93.70;;;;;;5027119;28;20459;-52
2022/10/13 07:40:01;;;;;;;7.37;4.47;;;21.90;93.70;;;;;;5027048;28;20457;-45
2022/10/13 07:42:28;;;;;;;4.63;4.23;;;21.90;93.50;;;;;;5028498;28;20849;-47
2022/10/13 07:44:54;;;;;;;3.57;3.30;;;21.90;93.40;;;;;;5019247;28;20577;-41
2022/10/13 07:47:22;;;;;;;3.60;3.30;;;22.00;93.20;;;;;;5014893;28;20473;-46
2022/10/13 07:49:49;;;;;;;4.00;3.60;;;22.00;93.10;;;;;;5015383;28;20459;-48
2022/10/13 07:52:16;;;;;;;4.23;2.90;;;22.10;93.00;;;;;;5014684;28;20528;-48
2022/10/13 07:54:42;;;;;;;2.90;2.70;;;22.10;93.00;;;;;;5019104;28;20455;-44
2022/10/13 07:57:09;;;;;;;3.87;3.37;;;22.10;92.90;;;;;;5014175;28;21019;-48
2022/10/13 07:59:36;;;;;;;3.40;3.00;;;22.10;92.80;;;;;;5025030;28;20469;-44
2022/10/13 08:02:03;;;;;;;3.20;2.90;;;22.10;92.80;;;;;;5021315;28;20482;-48
2022/10/13 08:04:32;;;;;;;3.17;2.87;;;22.10;92.80;;;;;;5028871;28;20461;-49
2022/10/13 08:06:59;;;;;;;3.00;2.70;;;22.10;92.70;;;;;;5026427;28;20454;-49
2022/10/13 08:09:26;;;;;;;3.50;3.23;;;22.10;93.00;;;;;;5028504;28;20551;-46
2022/10/13 08:11:53;;;;;;;2.97;2.77;;;22.10;92.60;;;;;;5026964;28;20598;-48
2022/10/13 08:14:20;;;;;;;3.57;3.27;;;22.10;92.60;;;;;;5022279;28;20482;-46
2022/10/13 08:16:49;;;;;;;3.93;3.47;;;22.10;92.70;;;;;;5024083;28;20796;-49
2022/10/13 08:19:17;;;;;;;5.57;3.17;;;22.10;92.70;;;;;;5026067;28;20827;-46
2022/10/13 08:21:45;;;;;;;6.50;2.80;;;22.10;93.20;;;;;;5027182;28;20808;-46
2022/10/13 08:24:14;;;;;;;3.83;3.33;;;22.20;94.00;;;;;;5031077;28;20521;-49
2022/10/13 08:26:46;;;;;;;3.50;3.20;;;22.10;93.90;;;;;;5025993;28;20466;-46
2022/10/13 08:29:13;;;;;;;4.63;3.70;;;22.20;93.80;;;;;;5029465;28;20474;-49
2022/10/13 08:31:40;;;;;;;3.80;3.40;;;22.10;93.80;;;;;;5016143;28;20470;-49
2022/10/13 08:34:07;;;;;;;5.80;2.73;;;22.20;93.70;;;;;;5028097;28;20450;-46
2022/10/13 08:36:33;;;;;;;4.17;3.77;;;22.20;93.60;;;;;;5017643;28;20470;-49
2022/10/13 08:39:01;;;;;;;4.63;3.17;;;22.10;93.50;;;;;;5020289;28;20465;-44
2022/10/13 08:41:32;;;;;;;3.13;2.80;;;22.10;93.60;;;;;;5014083;28;20483;-44
2022/10/13 08:44:06;;;;;;;5.20;2.97;;;22.10;93.50;;;;;;5025422;28;20459;-46
2022/10/13 08:46:39;;;;;;;4.40;2.60;;;22.10;93.50;;;;;;5022423;28;20796;-48
2022/10/13 08:49:06;;;;;;;3.60;2.87;;;22.00;93.50;;;;;;5024502;28;20465;-43
2022/10/13 08:51:35;;;;;;;3.77;2.77;;;22.00;93.50;;;;;;5024640;28;20982;-47
2022/10/13 08:54:05;;;;;;;6.87;2.63;;;22.00;93.60;;;;;;5019202;28;20457;-48
2022/10/13 08:56:34;;;;;;;3.93;2.60;;;22.00;93.70;;;;;;5015917;28;20465;-46
2022/10/13 08:59:03;;;;;;;5.80;3.40;;;22.00;93.60;;;;;;5020799;28;20458;-48
2022/10/13 09:01:33;;;;;;;3.60;3.30;;;22.10;93.50;;;;;;5018446;28;20989;-48
2022/10/13 09:04:16;;;;;;;3.07;2.83;;;22.10;93.40;;;;;;5020804;28;20466;-49
2022/10/13 09:06:46;;;;;;;2.80;2.60;;;22.20;93.60;;;;;;5015671;28;20982;-50
2022/10/13 09:09:16;;;;;;;5.40;2.87;;;22.20;93.50;;;;;;5016392;28;20516;-45
2022/10/13 09:11:44;;;;;;;4.30;3.10;;;22.30;93.30;;;;;;5021408;28;20466;-44
2022/10/13 09:14:13;;;;;;;2.90;2.60;;;22.40;92.60;;;;;;5017603;28;20456;-48
2022/10/13 09:16:41;;;;;;;3.50;3.20;;;22.50;92.20;;;;;;5020650;28;20485;-47
2022/10/13 09:19:21;;;;;;;3.27;2.97;;;22.50;92.10;;;;;;5027256;28;20459;-51
2022/10/13 09:21:48;;;;;;;3.90;3.57;;;22.50;92.20;;;;;;5029963;28;20565;-48
2022/10/13 09:24:18;;;;;;;3.83;3.20;;;22.50;92.60;;;;;;5014119;28;20815;-49
2022/10/13 09:26:46;;;;;;;3.30;2.57;;;22.50;92.10;;;;;;5027009;28;20465;-48
2022/10/13 09:29:18;;;;;;;6.03;3.13;;;22.50;92.40;;;;;;5023918;28;20466;-49
2022/10/13 09:31:45;;;;;;;4.67;3.03;;;22.50;92.00;;;;;;5017092;28;20474;-52
2022/10/13 09:34:22;;;;;;;2.20;2.10;;;22.50;92.00;;;;;;5016967;28;20455;-46
2022/10/13 09:36:56;;;;;;;3.03;2.73;;;22.60;92.10;;;;;;5017544;28;20469;-48
2022/10/13 09:39:24;;;;;;;2.70;2.47;;;22.60;91.50;;;;;;5022088;28;20757;-49
2022/10/13 09:41:51;;;;;;;3.00;2.50;;;22.60;91.20;;;;;;5029222;28;20505;-51
2022/10/13 09:44:29;;;;;;;3.50;3.20;;;22.60;91.10;;;;;;5023097;28;20976;-50
2022/10/13 09:46:58;;;;;;;3.73;3.10;;;22.60;91.10;;;;;;5018032;28;20914;-48
2022/10/13 09:49:33;;;;;;;3.50;2.93;;;22.60;91.20;;;;;;5026207;28;20506;-46
2022/10/13 09:52:02;;;;;;;4.53;2.90;;;22.60;91.20;;;;;;5023517;28;20461;-46
2022/10/13 09:54:40;;;;;;;3.30;3.00;;;22.60;91.30;;;;;;5016096;28;20455;-51
2022/10/13 09:57:14;;;;;;;4.03;3.63;;;22.60;91.30;;;;;;5012690;28;20493;-50
2022/10/13 09:59:45;;;;;;;4.47;3.00;;;22.60;91.20;;;;;;5015001;28;20454;-48
2022/10/13 10:02:20;;;;;;;3.77;3.20;;;22.60;91.20;;;;;;5018922;28;20478;-46
2022/10/13 10:04:47;;;;;;;4.43;3.00;;;22.60;91.20;;;;;;5017444;28;20466;-48
2022/10/13 10:07:20;;;;;;;5.43;3.50;;;22.60;91.20;;;;;;5027700;28;20465;-48
2022/10/13 10:09:52;;;;;;;5.60;2.83;;;22.60;91.20;;;;;;5018976;28;20466;-50
2022/10/13 10:12:23;;;;;;;4.60;3.27;;;22.50;91.30;;;;;;5027115;28;20455;-51
2022/10/13 10:14:49;;;;;;;3.60;2.70;;;22.60;91.40;;;;;;5018676;28;20450;-41
2022/10/13 10:17:23;;;;;;;3.03;2.77;;;22.60;91.30;;;;;;5012723;28;20506;-43
2022/10/13 10:19:59;;;;;;;3.13;2.90;;;22.50;91.40;;;;;;5030892;28;20469;-45
2022/10/13 10:22:35;;;;;;;3.05;2.75;;;22.50;91.60;;;;;;5019912;28;20467;-45
2022/10/13 10:25:15;;;;;;;4.80;2.97;;;22.50;91.80;;;;;;5023271;28;20673;-46
2022/10/13 10:27:47;;;;;;;6.43;3.00;;;22.50;91.80;;;;;;5029071;28;20452;-43
2022/10/13 10:30:17;;;;;;;6.83;2.90;;;22.50;91.80;;;;;;5028388;28;20195;-42
2022/10/13 10:32:53;;;;;;;5.63;3.13;;;22.50;91.70;;;;;;5023333;28;21157;-43
2022/10/13 10:35:27;;;;;;;5.47;2.80;;;22.50;91.80;;;;;;5019731;28;20747;-46
2022/10/13 10:38:03;;;;;;;3.43;3.13;;;22.50;91.90;;;;;;5020915;28;20946;-49
2022/10/13 10:40:40;;;;;;;3.20;2.90;;;22.50;92.10;;;;;;5025272;28;20956;-45
2022/10/13 10:43:35;;;;;;;4.43;2.60;;;22.60;92.20;;;;;;5022758;28;20513;-45
2022/10/13 10:46:01;;;;;;;6.03;3.10;;;22.60;92.20;;;;;;5022914;28;20452;-49
2022/10/13 10:48:32;;;;;;;3.10;2.60;;;22.60;92.30;;;;;;5028814;28;20454;-45
2022/10/13 10:51:00;;;;;;;5.90;3.07;;;22.60;92.30;;;;;;5019492;28;20462;-49
2022/10/13 10:53:36;;;;;;;4.60;2.60;;;22.70;92.30;;;;;;5017268;28;20873;-48
2022/10/13 10:56:14;;;;;;;5.93;3.00;;;22.70;92.30;;;;;;5015234;28;20459;-45
2022/10/13 10:58:49;;;;;;;3.20;2.90;;;22.70;92.40;;;;;;5026493;28;20461;-44
2022/10/13 11:01:28;;;;;;;3.70;2.77;;;22.70;92.40;;;;;;5022753;28;20694;-43
2022/10/13 11:04:01;;;;;;;2.63;2.43;;;22.70;92.40;;;;;;5026859;28;20454;-44
2022/10/13 11:06:36;;;;;;;5.57;2.37;;;22.70;92.40;;;;;;5017615;28;20458;-44
2022/10/13 11:09:04;;;;;;;6.30;2.93;;;22.80;92.50;;;;;;5015289;28;20463;-44
2022/10/13 11:11:41;;;;;;;3.10;2.43;;;22.80;92.50;;;;;;5025463;28;20463;-44
2022/10/13 11:14:24;;;;;;;2.80;2.17;;;22.80;92.50;;;;;;5031135;28;20880;-44
2022/10/13 11:17:18;;;;;;;5.43;2.87;;;22.80;92.50;;;;;;5020335;28;20829;-48
2022/10/13 11:19:46;;;;;;;17.27;2.97;;;22.80;92.60;;;;;;5026918;28;20462;-44
2022/10/13 11:22:16;;;;;;;5.20;2.47;;;22.80;92.60;;;;;;5025314;28;20884;-43
2022/10/13 11:25:00;;;;;;;7.67;3.03;;;22.80;92.40;;;;;;5028368;28;20462;-44
2022/10/13 11:27:44;;;;;;;7.17;4.17;;;22.80;92.30;;;;;;4989760;28;20463;-40
2022/10/13 11:30:48;;;;;;;7.27;5.30;;;22.20;90.50;;;;;;5020943;28;20810;-40
2022/10/13 11:33:46;;;;;;;8.47;5.43;;;21.20;92.80;;;;;;5013511;28;20838;-40
2022/10/13 11:36:47;;;;;;;7.50;4.73;;;20.70;93.50;;;;;;5018387;28;20486;-39
2022/10/13 11:39:48;;;;;;;8.70;4.78;;;20.40;94.70;;;;;;5010461;28;20854;-39
2022/10/13 11:42:39;;;;;;;5.63;3.67;;;20.50;95.90;;;;;;5022293;28;20214;-42
2022/10/13 11:45:20;;;;;;;11.83;4.70;;;21.20;94.60;;;;;;5022996;28;20467;-41
2022/10/13 11:48:02;;;;;;;7.50;4.20;;;21.60;94.20;;;;;;5020581;28;20471;-40
2022/10/13 11:50:36;;;;;;;5.93;3.63;;;20.80;94.60;;;;;;5015403;28;20462;-40
2022/10/13 11:53:15;;;;;;;10.13;5.40;;;20.70;94.60;;;;;;5013084;28;20506;-38
2022/10/13 11:55:48;;;;;;;8.18;4.97;;;20.30;96.30;;;;;;5023414;28;20477;-39
2022/10/13 11:58:19;;;;;;;6.13;4.55;;;20.00;95.60;;;;;;5025045;28;20280;-40
2022/10/13 12:00:59;;;;;;;9.32;5.13;;;20.00;96.60;;;;;;5024061;28;20319;-40
2022/10/13 12:03:28;;;;;;;7.32;5.40;;;20.00;96.80;;;;;;5022357;28;20219;-39
2022/10/13 12:05:58;;;;;;;5.93;4.30;;;20.20;97.30;;;;;;5020965;28;20652;-41
2022/10/13 12:08:27;;;;;;;7.35;4.75;;;20.20;95.90;;;;;;5020495;28;20680;-39
2022/10/13 12:10:57;;;;;;;4.00;3.25;;;20.10;96.00;;;;;;5019986;28;20200;-45
2022/10/13 12:13:27;;;;;;;5.15;3.55;;;20.80;97.30;;;;;;5027086;28;20258;-45
2022/10/13 12:15:59;;;;;;;3.53;2.53;;;21.30;96.00;;;;;;5024491;28;20204;-43
2022/10/13 12:18:28;;;;;;;4.20;2.80;;;21.50;95.30;;;;;;5018128;28;20491;-43
2022/10/13 12:20:57;;;;;;;6.23;3.53;;;21.60;94.90;;;;;;5026183;28;20473;-48
2022/10/13 12:23:24;;;;;;;5.47;2.80;;;21.60;94.70;;;;;;5020513;28;20494;-46
2022/10/13 12:25:56;;;;;;;2.77;2.30;;;21.60;94.50;;;;;;5025842;28;20509;-46
2022/10/13 12:28:26;;;;;;;4.70;3.07;;;21.70;94.40;;;;;;5028603;28;20450;-47
2022/10/13 12:30:54;;;;;;;3.50;2.67;;;21.70;94.30;;;;;;5020911;28;20455;-46
2022/10/13 12:33:26;;;;;;;3.77;2.80;;;21.70;94.20;;;;;;5021800;28;20459;-46
2022/10/13 12:35:54;;;;;;;5.43;2.60;;;21.70;94.10;;;;;;5019210;28;21020;-45
2022/10/13 12:38:22;;;;;;;2.97;2.73;;;21.70;94.00;;;;;;5020268;28;20459;-46
2022/10/13 12:40:50;;;;;;;3.70;2.60;;;21.70;93.90;;;;;;5018586;28;20471;-44
2022/10/13 12:43:19;;;;;;;3.37;2.10;;;21.70;93.90;;;;;;5028152;28;20486;-46
2022/10/13 12:45:48;;;;;;;4.30;3.60;;;21.80;93.80;;;;;;5022762;28;20453;-44
2022/10/13 12:48:37;;;;;;;3.67;2.90;;;21.80;93.90;;;;;;5014421;28;21073;-45
2022/10/13 12:51:18;;;;;;;3.13;2.60;;;21.80;93.90;;;;;;5016727;28;20962;-46
2022/10/13 12:53:46;;;;;;;5.93;3.20;;;21.80;93.90;;;;;;5030054;28;20469;-46
2022/10/13 12:56:25;;;;;;;3.73;2.83;;;21.80;93.90;;;;;;5019439;28;20465;-44
2022/10/13 12:58:51;;;;;;;3.63;3.30;;;21.80;93.80;;;;;;5018287;28;20458;-46
2022/10/13 13:01:29;;;;;;;4.00;3.00;;;21.80;93.90;;;;;;5021390;28;20841;-45